Sonic Adventure (DX): Overall Rankings

Records: Times | Rings | Scores | Races | Bosses | Freestyle
Leaders: Times | Rings | Scores | Races | Bosses | Freestyle | Overall
Rank Player Percent Points Date
1 Sonicspeedruner 97.9% 360 02-13-19
2 Gamepro011 97.9% 365 02-13-19
3 DarkPolarNight 96.6% 591 02-13-19
4 Jawzun 93.0% 1223 02-13-19
5 Dashjump 91.5% 1486 02-13-19
6 DarkspinesSonic 89.6% 1828 02-13-19
7 Avento128bits 89.4% 1853 02-13-19
8 ike6252 89.2% 1892 02-13-19
9 F-Man 87.4% 2213 02-13-19
10 Coolfansonic 87.0% 2287 02-13-19
11 HyperSonic7701 84.1% 2802 02-13-19
12 TheRealShadnic 83.8% 2849 02-13-19
13 yoshifan 82.4% 3102 02-13-19
14 frankoredstrato 82.0% 3174 02-13-19
15 francisco 81.0% 3337 02-13-19
16 Marth 80.9% 3366 02-13-19
17 InferSaime 79.5% 3604 02-13-19
18 PfoSonic 79.1% 3684 02-13-19
19 Paragod 78.6% 3759 02-13-19
20 THC98 77.9% 3892 02-13-19
21 Stefan 75.4% 4331 02-13-19
22 RPGnutter 73.3% 4704 02-13-19
23 bertin 73.2% 4727 02-13-19
24 Dekuboy 71.2% 5068 02-13-19
25 sonicam 71.1% 5093 02-13-19
26 drminus 69.8% 5328 02-13-19
27 chaos shadow 69.1% 5446 02-13-19
28 chainchumper 65.7% 6049 02-13-19
29 Combo 65.2% 6139 02-13-19
30 SkyLights 64.0% 6350 02-13-19
31 xXMegaManXx 62.3% 6639 02-13-19
32 Diamond 61.9% 6706 02-13-19
33 Auriman1 59.8% 7081 02-13-19
34 OmegaDJ 59.8% 7086 02-13-19
35 GerbilSoft 59.7% 7093 02-13-19
36 magnum12 59.0% 7226 02-13-19
37 Thorn 56.8% 7613 02-13-19
38 P1 Pause 56.6% 7655 02-13-19
39 mike89 55.4% 7860 02-13-19
40 Dave Cramer 53.5% 8189 02-13-19
41 Groudon199 53.5% 8195 02-13-19
42 Parax 53.0% 8284 02-13-19
43 Shadow Jacky 52.4% 8390 02-13-19
44 Psymar 47.4% 9277 02-13-19
45 Arch 46.5% 9431 02-13-19
46 Chao_Fan 45.6% 9587 02-13-19
47 mauserman 44.9% 9708 02-13-19
48 Quartz 44.5% 9789 02-13-19
49 teamblackarms 43.8% 9903 02-13-19
50 Zurggriff 43.0% 10053 02-13-19
51 Psyknux 42.9% 10059 02-13-19
52 James_Bertolli 42.7% 10110 02-13-19
53 Cyan Ryan 42.5% 10129 02-13-19
54 NintenDan 42.2% 10182 02-13-19
55 Webber3000 41.6% 10290 02-13-19
56 Turbos 41.6% 10297 02-13-19
57 Ring Rush 41.4% 10334 02-13-19
58 Fr3nZy 41.2% 10366 02-13-19
59 Cream147 41.1% 10388 02-13-19
60 videogamemaster777 41.0% 10396 02-13-19
61 Siavash Tazari 40.9% 10421 02-13-19
62 buddychaos0415 40.4% 10509 02-13-19
63 SadisticMystic 39.9% 10596 02-13-19
64 ethmar 39.7% 10639 02-13-19
65 eggFL 39.0% 10758 02-13-19
66 Calfd 38.4% 10865 02-13-19
67 SB737 37.3% 11050 02-13-19
68 supersonic465 36.9% 11131 02-13-19
69 supersonicfan 36.3% 11235 02-13-19
70 FuzZerd 35.2% 11429 02-13-19
71 Aitamen 34.7% 11519 02-13-19
72 elecmouse101 34.3% 11592 02-13-19
73 BigAL49 34.2% 11596 02-13-19
74 danieldude 34.1% 11620 02-13-19
75 Austinf 33.6% 11702 02-13-19
76 metanightmare22 32.9% 11822 02-13-19
77 dabestgamer 32.5% 11895 02-13-19
78 MiStEr_ShAoLiN 32.4% 11910 02-13-19
79 Andrea Ritsu 31.7% 12044 02-13-19
80 itsPersonnal 31.5% 12074 02-13-19
81 WeegeeZV 31.3% 12108 02-13-19
82 Cybrax 30.8% 12204 02-13-19
83 Nim 30.5% 12245 02-13-19
84 JamminX42 30.5% 12259 02-13-19
85 SilvertheAlmighty 30.4% 12271 02-13-19
86 Mastakirby 30.1% 12320 02-13-19
87 VMU Player Banned 28.7% 12568 02-13-19
88 Omega Rafael Santos 28.3% 12649 02-13-19
89 Staf 28.0% 12690 02-13-19
90 The T 27.7% 12743 02-13-19
91 EngiNerd 27.5% 12787 02-13-19
92 lordmetalsonic 26.9% 12889 02-13-19
93 Hipertails12 26.7% 12917 02-13-19
94 welldooder64 26.4% 12984 02-13-19
95 GreatStar 26.3% 13003 02-13-19
96 Niczur 26.1% 13028 02-13-19
97 The Great Lord Mick 26.0% 13042 02-13-19
98 Sondow 25.9% 13065 02-13-19
99 LinksDarkArrows 25.7% 13104 02-13-19
100 Skylace 24.8% 13252 02-13-19
101 a_moustache 24.0% 13407 02-13-19
102 Rolken 23.3% 13532 02-13-19
103 Spinballwizard 21.6% 13819 02-13-19
104 Xia 21.6% 13823 02-13-19
105 Kogen Player Banned 21.5% 13835 02-13-19
106 Don 21.3% 13885 02-13-19
107 CoEmpathy 21.2% 13896 02-13-19
108 f0rever_zer0 21.1% 13908 02-13-19
109 Twilisailor 21.1% 13910 02-13-19
110 Game_Complete 21.1% 13914 02-13-19
111 Miles9999 21.0% 13929 02-13-19
112 Cutiefox 21.0% 13936 02-13-19
113 andres430 20.2% 14064 02-13-19
114 Cruizer 20.1% 14086 02-13-19
115 iSonicKid2K 19.9% 14123 02-13-19
116 SADXTryHard 19.8% 14137 02-13-19
117 GarnetPrincess 19.2% 14242 02-13-19
118 N 19.2% 14245 02-13-19
119 AxlThunder 18.9% 14304 02-13-19
120 knuckles_sonic8 18.5% 14373 02-13-19
121 KinkyCadence 18.1% 14450 02-13-19
122 The Knuckles Chao 17.9% 14472 02-13-19
123 Team_Yoshi 17.8% 14498 02-13-19
124 Termon 17.7% 14508 02-13-19
125 LittleBigness 17.6% 14536 02-13-19
126 SonicWinDX 17.5% 14547 02-13-19
127 FoxBoy 17.3% 14580 02-13-19
128 Drakodan 16.8% 14677 02-13-19
129 Sonic Singularity 15.6% 14876 02-13-19
130 Pokemonmaster888 15.3% 14928 02-13-19
131 paulie9990 14.9% 15000 02-13-19
132 SilverSonic 14.4% 15102 02-13-19
133 MPit08 14.1% 15150 02-13-19
134 Mo Player Banned 13.9% 15175 02-13-19
135 koinu93 13.7% 15213 02-13-19
136 Cod4Scopes 13.5% 15262 02-13-19
137 Jerzia 13.3% 15293 02-13-19
138 HyperSonic64 13.2% 15302 02-13-19
139 Hunters13 13.1% 15324 02-13-19
140 booo95 13.1% 15331 02-13-19
141 Chawkk 13.0% 15340 02-13-19
142 SuperSonic101 12.8% 15372 02-13-19
143 Maxinfamily 12.7% 15388 02-13-19
144 R3FR4G 12.7% 15401 02-13-19
145 Kanimayo_Jp 12.4% 15440 02-13-19
146 PsyBorg 12.4% 15453 02-13-19
147 LilZero 12.3% 15461 02-13-19
148 Flying Fox 12.3% 15466 02-13-19
149 BrokenArthritis 12.3% 15467 02-13-19
150 Therio 11.9% 15536 02-13-19
151 sonicspeed 11.5% 15602 02-13-19
152 douglas 11.4% 15627 02-13-19
153 thewaytodawnnn 11.3% 15649 02-13-19
154 Matt_TY 11.1% 15673 02-13-19
155 ModifiedMonkee 11.1% 15680 02-13-19
156 SuperBlitzCraig 10.6% 15765 02-13-19
157 joecoolgames 10.6% 15770 02-13-19
158 Cooljay 10.5% 15775 02-13-19
159 SeaWolf 10.4% 15796 02-13-19
160 videogamer1014 10.2% 15834 02-13-19
161 AC-Tygo 9.9% 15880 02-13-19
162 welshmoose05 9.9% 15889 02-13-19
163 OddCook 9.7% 15926 02-13-19
164 TFEC Headshot 9.7% 15928 02-13-19
165 crazy1993 9.7% 15931 02-13-19
166 Mcshuggets 9.6% 15949 02-13-19
167 Mariobutch 9.4% 15970 02-13-19
168 Irregular Zero 9.2% 16019 02-13-19
168 nuckrieg 9.2% 16019 02-13-19
170 niscool 9.1% 16029 02-13-19
171 SonicAD 9.0% 16050 02-13-19
172 Shadowthegreat 8.8% 16090 02-13-19
172 SirTobbii 8.8% 16090 02-13-19
174 superjupi 8.7% 16094 02-13-19
175 Powerjohn25 8.5% 16137 02-13-19
176 SaviourDC 8.5% 16142 02-13-19
176 sonamyfan666 8.5% 16142 02-13-19
178 iarebored 8.5% 16143 02-13-19
179 SonicKnuckles 8.3% 16167 02-13-19
180 Werey 8.2% 16195 02-13-19
181 adf 8.0% 16228 02-13-19
182 Megaman EXE565 7.7% 16277 02-13-19
183 ArcticDragon 7.5% 16313 02-13-19
184 Platformer 7.4% 16325 02-13-19
185 FocusSight64 7.2% 16360 02-13-19
185 Swift Hobo 7.2% 16360 02-13-19
185 timpkmn89 7.2% 16360 02-13-19
188 Vicklaw 7.1% 16383 02-13-19
189 wheatrich 7.0% 16395 02-13-19
190 Rickyman48 7.0% 16399 02-13-19
191 KitsuneYamaro 6.8% 16444 02-13-19
192 Sm4sh 6.7% 16447 02-13-19
193 Triseena 6.5% 16483 02-13-19
194 Starlight Sable 6.4% 16504 02-13-19
195 CyberShadow 6.4% 16510 02-13-19
196 Destroyer121121 6.4% 16511 02-13-19
197 slade23 6.3% 16524 02-13-19
198 dShadow 6.3% 16526 02-13-19
199 IsisDazs 6.2% 16537 02-13-19
200 BlankTH 5.9% 16590 02-13-19
201 Badlex727 5.9% 16598 02-13-19
202 Monkeh 5.8% 16611 02-13-19
203 SonicU260 5.6% 16643 02-13-19
204 Swinkly 5.6% 16647 02-13-19
205 Richied 5.6% 16650 02-13-19
206 DaDude 5.6% 16652 02-13-19
207 Crispian 5.6% 16655 02-13-19
208 sonicd5 5.5% 16663 02-13-19
209 Zip 5.4% 16683 02-13-19
210 VeritasDL 5.3% 16706 02-13-19
211 tal39h 5.1% 16741 02-13-19
212 Kirbymon30 5.0% 16750 02-13-19
213 ALundstrom10 5.0% 16751 02-13-19
214 soniccoloursunleashed 4.8% 16784 02-13-19
215 Drflash55 4.8% 16792 02-13-19
216 Bass 4.6% 16816 02-13-19
217 neaolas 4.6% 16820 02-13-19
218 Yish 4.6% 16824 02-13-19
219 zapp 4.5% 16834 02-13-19
220 UninspiredUsername 4.5% 16837 02-13-19
221 Sonicsuperstar1 4.5% 16846 02-13-19
222 superiorsonic 4.5% 16848 02-13-19
223 gamefreak1292 4.4% 16858 02-13-19
224 Sora_yx 4.2% 16886 02-13-19
225 Chaos_Overlord 4.1% 16918 02-13-19
226 TakaRikka 4.0% 16935 02-13-19
227 Valfore 3.9% 16940 02-13-19
228 Dage4Aquatic 3.8% 16960 02-13-19
229 ShinigamiMachine 3.8% 16973 02-13-19
230 Regano1000 3.7% 16987 02-13-19
231 MK 3.6% 17004 02-13-19
232 Ace747 3.5% 17020 02-13-19
233 Jua Rever 3.4% 17044 02-13-19
234 Illidan 3.1% 17085 02-13-19
235 HHNNBBHHN 3.1% 17086 02-13-19
236 Brian_pso 3.1% 17089 02-13-19
237 Venick409 3.1% 17091 02-13-19
238 Sithwarrior26 3.1% 17096 02-13-19
239 nman36 3.1% 17097 02-13-19
240 ingx24 2.9% 17123 02-13-19
241 Egor305 2.9% 17126 02-13-19
242 TheChaosEmeraIds 2.9% 17128 02-13-19
243 Nickson98 2.8% 17139 02-13-19
244 SkyBon 2.8% 17143 02-13-19
245 FSSRandomvids 2.8% 17149 02-13-19
246 dekki1234 2.7% 17150 02-13-19
247 Fozer 2.7% 17154 02-13-19
248 sonic29887 2.7% 17165 02-13-19
249 Colomb_30 2.7% 17167 02-13-19
250 Aiko 2.6% 17169 02-13-19
251 TheUltraBlur 2.6% 17178 02-13-19
252 1stKirbyever 2.6% 17183 02-13-19
253 TimTH 2.5% 17199 02-13-19
254 Th4tN1nj4Turtl3 2.3% 17223 02-13-19
255 Cort_pso 2.3% 17231 02-13-19
256 Doom-9 2.3% 17238 02-13-19
257 ieatatsonic 2.2% 17241 02-13-19
258 Mariosonic15 2.2% 17246 02-13-19
259 MStitomix 2.1% 17260 02-13-19
260 HermitHelmet 2.1% 17266 02-13-19
261 SuperSonic71087 2.0% 17284 02-13-19
262 Got4n 2.0% 17285 02-13-19
263 Questionguy555 2.0% 17288 02-13-19
264 Artie 2.0% 17289 02-13-19
265 Jose_15 1.9% 17296 02-13-19
266 djmat 1.9% 17307 02-13-19
267 SuperSonicfan9595 1.8% 17315 02-13-19
268 sonicandamy Player Banned 1.7% 17328 02-13-19
269 LancexExWx 1.7% 17340 02-13-19
270 Paixii 1.7% 17343 02-13-19
271 son1cgu1tar 1.6% 17346 02-13-19
272 Heroes_Hater 1.6% 17354 02-13-19
273 BallzeH 1.5% 17363 02-13-19
274 Mankster101 1.5% 17369 02-13-19
275 Jamixesa 1.5% 17372 02-13-19
276 BecauseWarAnvil 1.5% 17373 02-13-19
277 Shanekilz 1.5% 17379 02-13-19
278 Crydio 1.4% 17383 02-13-19
279 SpiritDragon1995 1.4% 17385 02-13-19
280 MarewBFN 1.3% 17402 02-13-19
280 stanski 1.3% 17402 02-13-19
282 Sonique Hedgehog 1.3% 17407 02-13-19
283 ArthurVGCP 1.2% 17418 02-13-19
283 Blue Infamy 1.2% 17418 02-13-19
285 p0ker 1.2% 17421 02-13-19
286 ErrortheCucco 1.2% 17429 02-13-19
287 Rikum22 1.2% 17432 02-13-19
288 Arthas 1.1% 17437 02-13-19
289 sonic1001 1.1% 17440 02-13-19
290 syco1098 1.1% 17447 02-13-19
291 AJSIV 1.1% 17449 02-13-19
292 Sonic the Hedgehod16 1.0% 17452 02-13-19
292 WingedInsignia 1.0% 17452 02-13-19
294 ASINISTERTACO 1.0% 17459 02-13-19
295 sonicfan9 1.0% 17465 02-13-19
296 BlackArmsShadow 0.9% 17473 02-13-19
297 themachoman202 0.9% 17475 02-13-19
298 shadowblast63 Player Banned 0.9% 17479 02-13-19
299 MastaToken 0.9% 17483 02-13-19
300 darkstarblaze 0.9% 17484 02-13-19
300 Fivavoa 0.9% 17484 02-13-19
302 Ben1502 0.8% 17486 02-13-19
302 Greham Adelphis 0.8% 17486 02-13-19
302 Mr. Jones 0.8% 17486 02-13-19
305 TommyeAsY 0.8% 17488 02-13-19
306 arcfx1985 0.8% 17489 02-13-19
307 ptorflaxendrosis 0.8% 17492 02-13-19
308 FlandreScarlet9999vr 0.8% 17496 02-13-19
309 Gvozdevik 0.8% 17497 02-13-19
310 Zeldocto 0.8% 17499 02-13-19
311 Knuckles 0.8% 17500 02-13-19
312 BeeAwwb 0.7% 17504 02-13-19
313 KaM Mark MaK 0.7% 17505 02-13-19
314 ShadouZaHejjihoggu 0.7% 17510 02-13-19
315 Sogeking 0.7% 17514 02-13-19
316 Sonic The Star 0.7% 17518 02-13-19
317 darkersupershadic 0.7% 17519 02-13-19
318 Sonic62 0.6% 17522 02-13-19
319 Sarger001 0.6% 17523 02-13-19
320 dragondragon18 0.6% 17527 02-13-19
320 Grady219 0.6% 17527 02-13-19
322 SonicK100 0.6% 17528 02-13-19
323 Shadygamerfreak 0.6% 17529 02-13-19
324 Jawaah 0.6% 17532 02-13-19
325 Antek 0.6% 17536 02-13-19
326 Klaus 0.6% 17538 02-13-19
326 SpinDashMaster 0.6% 17538 02-13-19
328 SilverK 0.5% 17540 02-13-19
329 BioShadow 0.5% 17544 02-13-19
330 Videogamer123 0.5% 17551 02-13-19
331 oTaiIilLsS 0.4% 17561 02-13-19
332 isaihtb11 0.4% 17565 02-13-19
333 OhNoes! 0.4% 17566 02-13-19
333 zaktu40 0.4% 17566 02-13-19
335 Mad Andy 0.4% 17567 02-13-19
336 gaara1234 0.4% 17569 02-13-19
337 S-MS32X-S 0.4% 17570 02-13-19
338 gamed00d 0.3% 17575 02-13-19
339 Mister_Slick 0.3% 17582 02-13-19
340 Rush Hero 0.3% 17586 02-13-19
340 Sonic06Fan 0.3% 17586 02-13-19
342 ChaosNexuss 0.3% 17587 02-13-19
343 SonicMega167 0.2% 17592 02-13-19
344 Iwannabelink 0.2% 17593 02-13-19
345 sonknuck23 0.2% 17597 02-13-19
346 gamer1245 0.2% 17604 02-13-19
347 DanielTheFalcon 0.2% 17605 02-13-19
348 Burningskull123 0.1% 17611 02-13-19
349 Sonicontherun 0.1% 17623 02-13-19
350 Lil_Dude 0.1% 17625 02-13-19
351 antiwwe 0.0% 17629 02-13-19
352 Cbwade15 0.0% 17632 02-13-19
353 Genuine Hedgehog 0.0% 17633 02-13-19
354 Tyrouble 0.0% 17637 02-13-19
355 MegabombBlade 0.0% 17644 02-13-19
355 neji_hyuuga 0.0% 17644 02-13-19
355 Over 0.0% 17644 02-13-19
355 sdj6707 Player Banned 0.0% 17644 02-13-19
355 Tran Sonic Fan Player Banned 0.0% 17644 02-13-19

This page is using the New Data Table System. [FUTURE]

Game ID: 3 | Category ID: 10
Hits: 74,281 | Hits This Month: 87 | DB Calls: 21 | Mem Usage: 5.89 MB | Time: 0.15s | Printable

The Sonic Center v3.9
Copyright 2003-2011 by The Sonic Center Team.